sensor_id;sensor_type;location;lat;lon;timestamp;pressure;altitude;pressure_sealevel;temperature;humidity
74659;BME280;63186;51.204;6.536;2024-02-23T00:02:19;98517.06;;;4.60;100.00
74659;BME280;63186;51.204;6.536;2024-02-23T00:04:44;98507.00;;;4.52;100.00
74659;BME280;63186;51.204;6.536;2024-02-23T00:07:10;98506.53;;;4.41;100.00
74659;BME280;63186;51.204;6.536;2024-02-23T00:09:35;98520.31;;;4.36;100.00
74659;BME280;63186;51.204;6.536;2024-02-23T00:12:01;98523.88;;;4.28;100.00
74659;BME280;63186;51.204;6.536;2024-02-23T00:14:26;98539.91;;;4.21;100.00
74659;BME280;63186;51.204;6.536;2024-02-23T00:16:51;98520.88;;;4.12;100.00
74659;BME280;63186;51.204;6.536;2024-02-23T00:19:17;98518.16;;;4.12;100.00
74659;BME280;63186;51.204;6.536;2024-02-23T00:21:44;98527.75;;;4.09;100.00
74659;BME280;63186;51.204;6.536;2024-02-23T00:24:14;98526.47;;;4.07;100.00
74659;BME280;63186;51.204;6.536;2024-02-23T00:26:41;98533.22;;;4.01;100.00
74659;BME280;63186;51.204;6.536;2024-02-23T00:29:06;98546.03;;;4.00;100.00
74659;BME280;63186;51.204;6.536;2024-02-23T00:31:32;98550.81;;;3.95;100.00
74659;BME280;63186;51.204;6.536;2024-02-23T00:33:57;98561.25;;;3.93;100.00
74659;BME280;63186;51.204;6.536;2024-02-23T00:36:23;98562.53;;;3.87;100.00
74659;BME280;63186;51.204;6.536;2024-02-23T00:38:48;98555.31;;;3.82;100.00
74659;BME280;63186;51.204;6.536;2024-02-23T00:41:13;98565.06;;;3.83;100.00
74659;BME280;63186;51.204;6.536;2024-02-23T00:43:40;98573.09;;;3.79;100.00
74659;BME280;63186;51.204;6.536;2024-02-23T00:46:06;98574.38;;;3.73;100.00
74659;BME280;63186;51.204;6.536;2024-02-23T00:48:32;98572.78;;;3.72;100.00
74659;BME280;63186;51.204;6.536;2024-02-23T00:50:57;98579.81;;;3.73;100.00
74659;BME280;63186;51.204;6.536;2024-02-23T00:53:22;98588.44;;;3.75;100.00
74659;BME280;63186;51.204;6.536;2024-02-23T00:55:47;98583.47;;;3.77;100.00
74659;BME280;63186;51.204;6.536;2024-02-23T00:58:13;98589.41;;;3.79;100.00
74659;BME280;63186;51.204;6.536;2024-02-23T01:00:38;98600.13;;;3.85;100.00
74659;BME280;63186;51.204;6.536;2024-02-23T01:03:04;98603.81;;;3.80;100.00
74659;BME280;63186;51.204;6.536;2024-02-23T01:05:30;98598.06;;;3.81;100.00
74659;BME280;63186;51.204;6.536;2024-02-23T01:07:55;98613.59;;;3.90;100.00
74659;BME280;63186;51.204;6.536;2024-02-23T01:10:20;98597.44;;;3.93;100.00
74659;BME280;63186;51.204;6.536;2024-02-23T01:12:46;98615.06;;;4.13;100.00
74659;BME280;63186;51.204;6.536;2024-02-23T01:15:11;98609.44;;;4.18;100.00
74659;BME280;63186;51.204;6.536;2024-02-23T01:17:36;98618.56;;;4.22;100.00
74659;BME280;63186;51.204;6.536;2024-02-23T01:20:03;98609.94;;;4.20;100.00
74659;BME280;63186;51.204;6.536;2024-02-23T01:22:29;98606.56;;;4.15;100.00
74659;BME280;63186;51.204;6.536;2024-02-23T01:24:54;98636.69;;;4.27;100.00
74659;BME280;63186;51.204;6.536;2024-02-23T01:27:19;98627.38;;;4.28;100.00
74659;BME280;63186;51.204;6.536;2024-02-23T01:29:45;98631.22;;;4.35;100.00
74659;BME280;63186;51.204;6.536;2024-02-23T01:32:10;98649.31;;;4.40;100.00
74659;BME280;63186;51.204;6.536;2024-02-23T01:34:35;98639.06;;;4.28;100.00
74659;BME280;63186;51.204;6.536;2024-02-23T01:37:00;98636.97;;;4.17;100.00
74659;BME280;63186;51.204;6.536;2024-02-23T01:39:26;98645.47;;;4.06;100.00
74659;BME280;63186;51.204;6.536;2024-02-23T01:41:51;98639.38;;;4.01;100.00
74659;BME280;63186;51.204;6.536;2024-02-23T01:44:16;98647.88;;;3.99;100.00
74659;BME280;63186;51.204;6.536;2024-02-23T01:46:43;98650.47;;;4.04;100.00
74659;BME280;63186;51.204;6.536;2024-02-23T01:49:08;98649.00;;;3.98;100.00
74659;BME280;63186;51.204;6.536;2024-02-23T01:51:34;98637.47;;;3.93;100.00
74659;BME280;63186;51.204;6.536;2024-02-23T01:54:00;98651.41;;;3.91;100.00
74659;BME280;63186;51.204;6.536;2024-02-23T01:56:26;98657.47;;;3.97;100.00
74659;BME280;63186;51.204;6.536;2024-02-23T01:58:52;98654.28;;;4.03;100.00
74659;BME280;63186;51.204;6.536;2024-02-23T02:01:19;98665.16;;;4.03;100.00
74659;BME280;63186;51.204;6.536;2024-02-23T02:03:44;98673.81;;;3.97;100.00
74659;BME280;63186;51.204;6.536;2024-02-23T02:06:10;98681.69;;;3.98;100.00
74659;BME280;63186;51.204;6.536;2024-02-23T02:08:36;98683.28;;;3.99;100.00
74659;BME280;63186;51.204;6.536;2024-02-23T02:11:03;98684.06;;;4.00;100.00
74659;BME280;63186;51.204;6.536;2024-02-23T02:13:29;98687.75;;;3.95;100.00
74659;BME280;63186;51.204;6.536;2024-02-23T02:15:55;98666.28;;;3.94;100.00
74659;BME280;63186;51.204;6.536;2024-02-23T02:18:20;98680.38;;;3.96;100.00
74659;BME280;63186;51.204;6.536;2024-02-23T02:20:55;98695.75;;;3.92;100.00
74659;BME280;63186;51.204;6.536;2024-02-23T02:23:22;98693.19;;;3.87;100.00
74659;BME280;63186;51.204;6.536;2024-02-23T02:25:57;98703.41;;;3.90;100.00
74659;BME280;63186;51.204;6.536;2024-02-23T02:28:23;98683.09;;;3.87;100.00
74659;BME280;63186;51.204;6.536;2024-02-23T02:30:50;98689.00;;;3.89;100.00
74659;BME280;63186;51.204;6.536;2024-02-23T02:33:15;98701.19;;;3.92;100.00
74659;BME280;63186;51.204;6.536;2024-02-23T02:35:41;98695.44;;;3.93;100.00
74659;BME280;63186;51.204;6.536;2024-02-23T02:38:06;98708.84;;;3.90;100.00
74659;BME280;63186;51.204;6.536;2024-02-23T02:40:31;98707.56;;;3.78;100.00
74659;BME280;63186;51.204;6.536;2024-02-23T02:42:57;98698.25;;;3.71;100.00
74659;BME280;63186;51.204;6.536;2024-02-23T02:45:23;98703.53;;;3.67;100.00
74659;BME280;63186;51.204;6.536;2024-02-23T02:47:48;98711.69;;;3.67;100.00
74659;BME280;63186;51.204;6.536;2024-02-23T02:50:13;98706.41;;;3.71;100.00
74659;BME280;63186;51.204;6.536;2024-02-23T02:52:39;98705.16;;;3.77;100.00
74659;BME280;63186;51.204;6.536;2024-02-23T02:55:04;98713.66;;;3.84;100.00
74659;BME280;63186;51.204;6.536;2024-02-23T02:57:30;98710.63;;;3.86;100.00
74659;BME280;63186;51.204;6.536;2024-02-23T02:59:55;98715.09;;;3.90;100.00
74659;BME280;63186;51.204;6.536;2024-02-23T03:02:20;98713.03;;;3.87;100.00
74659;BME280;63186;51.204;6.536;2024-02-23T03:04:49;98715.41;;;3.80;100.00
74659;BME280;63186;51.204;6.536;2024-02-23T03:07:15;98711.25;;;3.83;100.00
74659;BME280;63186;51.204;6.536;2024-02-23T03:09:41;98707.59;;;3.87;100.00
74659;BME280;63186;51.204;6.536;2024-02-23T03:12:06;98716.06;;;3.86;100.00
74659;BME280;63186;51.204;6.536;2024-02-23T03:14:32;98715.09;;;3.81;100.00
74659;BME280;63186;51.204;6.536;2024-02-23T03:16:59;98723.56;;;3.80;100.00
74659;BME280;63186;51.204;6.536;2024-02-23T03:19:24;98726.78;;;3.82;100.00
74659;BME280;63186;51.204;6.536;2024-02-23T03:21:50;98723.25;;;3.81;100.00
74659;BME280;63186;51.204;6.536;2024-02-23T03:24:16;98714.44;;;3.76;100.00
74659;BME280;63186;51.204;6.536;2024-02-23T03:26:41;98726.13;;;3.76;100.00
74659;BME280;63186;51.204;6.536;2024-02-23T03:29:07;98719.72;;;3.72;100.00
74659;BME280;63186;51.204;6.536;2024-02-23T03:31:32;98719.66;;;3.64;100.00
74659;BME280;63186;51.204;6.536;2024-02-23T03:33:57;98707.50;;;3.61;100.00
74659;BME280;63186;51.204;6.536;2024-02-23T03:36:22;98723.84;;;3.61;100.00
74659;BME280;63186;51.204;6.536;2024-02-23T03:38:48;98716.59;;;3.57;100.00
74659;BME280;63186;51.204;6.536;2024-02-23T03:41:13;98728.94;;;3.54;100.00
74659;BME280;63186;51.204;6.536;2024-02-23T03:43:38;98730.06;;;3.53;100.00
74659;BME280;63186;51.204;6.536;2024-02-23T03:46:05;98739.81;;;3.54;100.00
74659;BME280;63186;51.204;6.536;2024-02-23T03:48:31;98739.63;;;3.50;100.00
74659;BME280;63186;51.204;6.536;2024-02-23T03:50:57;98738.22;;;3.53;100.00
74659;BME280;63186;51.204;6.536;2024-02-23T03:53:22;98730.34;;;3.51;100.00
74659;BME280;63186;51.204;6.536;2024-02-23T03:55:48;98727.00;;;3.54;100.00
74659;BME280;63186;51.204;6.536;2024-02-23T03:58:13;98727.94;;;3.50;100.00
74659;BME280;63186;51.204;6.536;2024-02-23T04:00:38;98727.78;;;3.46;100.00
74659;BME280;63186;51.204;6.536;2024-02-23T04:03:04;98732.25;;;3.51;100.00
74659;BME280;63186;51.204;6.536;2024-02-23T04:05:29;98745.25;;;3.54;100.00
74659;BME280;63186;51.204;6.536;2024-02-23T04:07:54;98748.28;;;3.52;100.00
74659;BME280;63186;51.204;6.536;2024-02-23T04:10:20;98753.22;;;3.50;100.00
74659;BME280;63186;51.204;6.536;2024-02-23T04:12:48;98759.31;;;3.47;100.00
74659;BME280;63186;51.204;6.536;2024-02-23T04:15:14;98753.53;;;3.49;100.00
74659;BME280;63186;51.204;6.536;2024-02-23T04:17:39;98766.69;;;3.56;100.00
74659;BME280;63186;51.204;6.536;2024-02-23T04:20:08;98770.13;;;3.70;100.00
74659;BME280;63186;51.204;6.536;2024-02-23T04:22:37;98770.81;;;3.84;100.00
74659;BME280;63186;51.204;6.536;2024-02-23T04:25:03;98752.25;;;3.86;100.00
74659;BME280;63186;51.204;6.536;2024-02-23T04:27:30;98753.88;;;3.96;100.00
74659;BME280;63186;51.204;6.536;2024-02-23T04:29:55;98764.50;;;4.06;100.00
74659;BME280;63186;51.204;6.536;2024-02-23T04:32:20;98767.38;;;4.09;100.00
74659;BME280;63186;51.204;6.536;2024-02-23T04:34:46;98770.41;;;4.08;100.00
74659;BME280;63186;51.204;6.536;2024-02-23T04:37:11;98770.41;;;4.08;100.00
74659;BME280;63186;51.204;6.536;2024-02-23T04:39:36;98768.47;;;4.08;100.00
74659;BME280;63186;51.204;6.536;2024-02-23T04:42:03;98764.16;;;4.16;100.00
74659;BME280;63186;51.204;6.536;2024-02-23T04:44:29;98765.78;;;4.17;100.00
74659;BME280;63186;51.204;6.536;2024-02-23T04:46:54;98773.16;;;4.17;100.00
74659;BME280;63186;51.204;6.536;2024-02-23T04:49:20;98774.59;;;4.14;100.00
74659;BME280;63186;51.204;6.536;2024-02-23T04:51:45;98774.44;;;4.19;100.00
74659;BME280;63186;51.204;6.536;2024-02-23T04:54:10;98763.72;;;4.23;100.00
74659;BME280;63186;51.204;6.536;2024-02-23T04:56:36;98766.94;;;4.25;100.00
74659;BME280;63186;51.204;6.536;2024-02-23T04:59:01;98775.25;;;4.20;100.00
74659;BME280;63186;51.204;6.536;2024-02-23T05:01:26;98765.16;;;4.12;100.00
74659;BME280;63186;51.204;6.536;2024-02-23T05:03:52;98768.81;;;4.07;100.00
74659;BME280;63186;51.204;6.536;2024-02-23T05:06:17;98755.19;;;3.98;100.00
74659;BME280;63186;51.204;6.536;2024-02-23T05:08:43;98773.56;;;3.93;100.00
74659;BME280;63186;51.204;6.536;2024-02-23T05:11:08;98773.03;;;3.82;100.00
74659;BME280;63186;51.204;6.536;2024-02-23T05:13:33;98766.81;;;3.81;100.00
74659;BME280;63186;51.204;6.536;2024-02-23T05:15:59;98771.31;;;3.86;100.00
74659;BME280;63186;51.204;6.536;2024-02-23T05:18:24;98777.50;;;3.78;100.00
74659;BME280;63186;51.204;6.536;2024-02-23T05:20:49;98773.34;;;3.72;100.00
74659;BME280;63186;51.204;6.536;2024-02-23T05:23:15;98780.38;;;3.73;100.00
74659;BME280;63186;51.204;6.536;2024-02-23T05:25:41;98786.50;;;3.78;100.00
74659;BME280;63186;51.204;6.536;2024-02-23T05:28:07;98782.06;;;3.91;100.00
74659;BME280;63186;51.204;6.536;2024-02-23T05:30:32;98783.22;;;3.99;100.00
74659;BME280;63186;51.204;6.536;2024-02-23T05:32:58;98780.31;;;3.95;100.00
74659;BME280;63186;51.204;6.536;2024-02-23T05:35:24;98782.75;;;4.05;100.00
74659;BME280;63186;51.204;6.536;2024-02-23T05:37:49;98784.53;;;4.19;100.00
74659;BME280;63186;51.204;6.536;2024-02-23T05:40:15;98782.94;;;4.26;100.00
74659;BME280;63186;51.204;6.536;2024-02-23T05:42:40;98789.38;;;4.39;100.00
74659;BME280;63186;51.204;6.536;2024-02-23T05:45:09;98783.28;;;4.42;100.00
74659;BME280;63186;51.204;6.536;2024-02-23T05:47:35;98786.81;;;4.43;100.00
74659;BME280;63186;51.204;6.536;2024-02-23T05:50:02;98784.59;;;4.45;100.00
74659;BME280;63186;51.204;6.536;2024-02-23T05:52:28;98783.00;;;4.44;100.00
74659;BME280;63186;51.204;6.536;2024-02-23T05:54:53;98791.00;;;4.49;100.00
74659;BME280;63186;51.204;6.536;2024-02-23T05:57:21;98781.41;;;4.51;100.00
74659;BME280;63186;51.204;6.536;2024-02-23T05:59:46;98784.25;;;4.55;100.00
74659;BME280;63186;51.204;6.536;2024-02-23T06:02:12;98779.78;;;4.59;100.00
74659;BME280;63186;51.204;6.536;2024-02-23T06:04:37;98788.78;;;4.59;100.00
74659;BME280;63186;51.204;6.536;2024-02-23T06:07:02;98786.19;;;4.54;100.00
74659;BME280;63186;51.204;6.536;2024-02-23T06:09:27;98777.06;;;4.50;100.00
74659;BME280;63186;51.204;6.536;2024-02-23T06:11:53;98787.00;;;4.46;100.00
74659;BME280;63186;51.204;6.536;2024-02-23T06:14:18;98774.13;;;4.29;100.00
74659;BME280;63186;51.204;6.536;2024-02-23T06:16:43;98790.19;;;4.31;100.00
74659;BME280;63186;51.204;6.536;2024-02-23T06:19:09;98787.75;;;4.29;100.00
74659;BME280;63186;51.204;6.536;2024-02-23T06:21:34;98785.81;;;4.30;100.00
74659;BME280;63186;51.204;6.536;2024-02-23T06:23:59;98785.34;;;4.28;100.00
74659;BME280;63186;51.204;6.536;2024-02-23T06:26:25;98774.31;;;4.33;100.00
74659;BME280;63186;51.204;6.536;2024-02-23T06:28:50;98787.13;;;4.41;100.00
74659;BME280;63186;51.204;6.536;2024-02-23T06:31:15;98784.41;;;4.41;100.00
74659;BME280;63186;51.204;6.536;2024-02-23T06:33:41;98792.44;;;4.46;100.00
74659;BME280;63186;51.204;6.536;2024-02-23T06:36:07;98782.34;;;4.47;100.00
74659;BME280;63186;51.204;6.536;2024-02-23T06:38:33;98784.09;;;4.43;100.00
74659;BME280;63186;51.204;6.536;2024-02-23T06:40:59;98794.69;;;4.44;100.00
74659;BME280;63186;51.204;6.536;2024-02-23T06:43:24;98802.88;;;4.44;100.00
74659;BME280;63186;51.204;6.536;2024-02-23T06:45:50;98796.75;;;4.47;100.00
74659;BME280;63186;51.204;6.536;2024-02-23T06:48:16;98810.72;;;4.54;100.00
74659;BME280;63186;51.204;6.536;2024-02-23T06:50:41;98804.94;;;4.56;100.00
74659;BME280;63186;51.204;6.536;2024-02-23T06:53:07;98806.72;;;4.60;100.00
74659;BME280;63186;51.204;6.536;2024-02-23T06:55:34;98789.41;;;4.56;100.00
74659;BME280;63186;51.204;6.536;2024-02-23T06:57:59;98794.84;;;4.48;100.00
74659;BME280;63186;51.204;6.536;2024-02-23T07:00:24;98799.81;;;4.46;100.00
74659;BME280;63186;51.204;6.536;2024-02-23T07:02:50;98807.03;;;4.50;100.00
74659;BME280;63186;51.204;6.536;2024-02-23T07:05:15;98804.13;;;4.55;100.00
74659;BME280;63186;51.204;6.536;2024-02-23T07:07:40;98816.19;;;4.63;100.00
74659;BME280;63186;51.204;6.536;2024-02-23T07:10:06;98804.81;;;4.70;100.00
74659;BME280;63186;51.204;6.536;2024-02-23T07:12:32;98814.44;;;4.84;100.00
74659;BME280;63186;51.204;6.536;2024-02-23T07:14:57;98818.59;;;4.82;100.00
74659;BME280;63186;51.204;6.536;2024-02-23T07:17:23;98816.06;;;4.77;100.00
74659;BME280;63186;51.204;6.536;2024-02-23T07:19:48;98819.06;;;4.75;100.00
74659;BME280;63186;51.204;6.536;2024-02-23T07:22:16;98819.53;;;4.69;100.00
74659;BME280;63186;51.204;6.536;2024-02-23T07:24:43;98807.84;;;4.59;100.00
74659;BME280;63186;51.204;6.536;2024-02-23T07:27:09;98813.78;;;4.61;100.00
74659;BME280;63186;51.204;6.536;2024-02-23T07:29:35;98817.47;;;4.66;100.00
74659;BME280;63186;51.204;6.536;2024-02-23T07:32:00;98818.28;;;4.75;100.00
74659;BME280;63186;51.204;6.536;2024-02-23T07:34:26;98823.28;;;4.90;100.00
74659;BME280;63186;51.204;6.536;2024-02-23T07:36:52;98818.91;;;5.24;100.00
74659;BME280;63186;51.204;6.536;2024-02-23T07:39:17;98807.84;;;5.93;100.00
74659;BME280;63186;51.204;6.536;2024-02-23T07:41:42;98808.06;;;6.47;100.00
74659;BME280;63186;51.204;6.536;2024-02-23T07:44:08;98811.78;;;6.42;100.00
74659;BME280;63186;51.204;6.536;2024-02-23T07:46:33;98811.41;;;6.52;100.00
74659;BME280;63186;51.204;6.536;2024-02-23T07:48:58;98817.03;;;6.18;97.24
74659;BME280;63186;51.204;6.536;2024-02-23T07:51:24;98815.06;;;5.89;100.00
74659;BME280;63186;51.204;6.536;2024-02-23T07:53:49;98807.38;;;5.73;100.00
74659;BME280;63186;51.204;6.536;2024-02-23T07:56:14;98810.75;;;5.79;100.00
74659;BME280;63186;51.204;6.536;2024-02-23T07:58:40;98808.16;;;6.00;100.00
74659;BME280;63186;51.204;6.536;2024-02-23T08:01:05;98807.50;;;7.82;94.51
74659;BME280;63186;51.204;6.536;2024-02-23T08:03:30;98810.88;;;8.37;88.44
74659;BME280;63186;51.204;6.536;2024-02-23T08:05:56;98815.16;;;8.87;79.14
74659;BME280;63186;51.204;6.536;2024-02-23T08:08:22;98813.66;;;8.77;83.63
74659;BME280;63186;51.204;6.536;2024-02-23T08:10:49;98814.94;;;8.06;86.38
74659;BME280;63186;51.204;6.536;2024-02-23T08:13:14;98807.69;;;6.99;87.14
74659;BME280;63186;51.204;6.536;2024-02-23T08:15:40;98807.19;;;6.34;93.53
74659;BME280;63186;51.204;6.536;2024-02-23T08:18:05;98807.78;;;6.10;96.36
74659;BME280;63186;51.204;6.536;2024-02-23T08:20:32;98816.31;;;6.09;98.42
74659;BME280;63186;51.204;6.536;2024-02-23T08:22:57;98818.13;;;5.96;98.89
74659;BME280;63186;51.204;6.536;2024-02-23T08:25:22;98821.97;;;5.86;99.19
74659;BME280;63186;51.204;6.536;2024-02-23T08:27:48;98819.75;;;5.80;98.23
74659;BME280;63186;51.204;6.536;2024-02-23T08:30:14;98819.59;;;5.76;96.93
74659;BME280;63186;51.204;6.536;2024-02-23T08:32:40;98822.50;;;5.71;99.55
74659;BME280;63186;51.204;6.536;2024-02-23T08:35:06;98821.03;;;5.73;99.14
74659;BME280;63186;51.204;6.536;2024-02-23T08:37:31;98819.44;;;5.72;100.00
74659;BME280;63186;51.204;6.536;2024-02-23T08:39:56;98823.78;;;5.82;99.70
74659;BME280;63186;51.204;6.536;2024-02-23T08:42:22;98834.63;;;5.99;99.79
74659;BME280;63186;51.204;6.536;2024-02-23T08:44:47;98831.63;;;6.31;98.15
74659;BME280;63186;51.204;6.536;2024-02-23T08:47:13;98835.13;;;6.40;95.92
74659;BME280;63186;51.204;6.536;2024-02-23T08:49:38;98816.78;;;6.40;95.58
74659;BME280;63186;51.204;6.536;2024-02-23T08:52:03;98822.34;;;6.52;95.90
74659;BME280;63186;51.204;6.536;2024-02-23T08:54:29;98816.06;;;6.52;93.54
74659;BME280;63186;51.204;6.536;2024-02-23T08:56:54;98812.59;;;6.64;94.52
74659;BME280;63186;51.204;6.536;2024-02-23T08:59:20;98808.41;;;6.87;96.27
74659;BME280;63186;51.204;6.536;2024-02-23T09:01:45;98807.13;;;7.26;92.02
74659;BME280;63186;51.204;6.536;2024-02-23T09:04:12;98804.84;;;7.74;87.23
74659;BME280;63186;51.204;6.536;2024-02-23T09:06:37;98818.69;;;7.77;86.32
74659;BME280;63186;51.204;6.536;2024-02-23T09:09:02;98810.19;;;7.58;88.52
74659;BME280;63186;51.204;6.536;2024-02-23T09:11:28;98816.59;;;7.74;86.98
74659;BME280;63186;51.204;6.536;2024-02-23T09:13:53;98819.81;;;7.76;84.93
74659;BME280;63186;51.204;6.536;2024-02-23T09:16:18;98804.25;;;7.68;83.79
74659;BME280;63186;51.204;6.536;2024-02-23T09:18:44;98814.50;;;8.41;81.62
74659;BME280;63186;51.204;6.536;2024-02-23T09:21:09;98811.19;;;8.60;83.71
74659;BME280;63186;51.204;6.536;2024-02-23T09:23:34;98814.47;;;7.92;85.82
74659;BME280;63186;51.204;6.536;2024-02-23T09:26:00;98807.81;;;7.69;87.22
74659;BME280;63186;51.204;6.536;2024-02-23T09:28:25;98818.97;;;7.51;87.30
74659;BME280;63186;51.204;6.536;2024-02-23T09:30:50;98815.00;;;7.28;84.39
74659;BME280;63186;51.204;6.536;2024-02-23T09:33:16;98826.91;;;7.11;88.59
74659;BME280;63186;51.204;6.536;2024-02-23T09:35:41;98830.19;;;7.04;90.78
74659;BME280;63186;51.204;6.536;2024-02-23T09:38:06;98822.50;;;6.98;92.19
74659;BME280;63186;51.204;6.536;2024-02-23T09:40:32;98828.25;;;7.05;89.38
74659;BME280;63186;51.204;6.536;2024-02-23T09:42:58;98823.13;;;7.16;90.88
74659;BME280;63186;51.204;6.536;2024-02-23T09:45:25;98822.09;;;7.74;89.30
74659;BME280;63186;51.204;6.536;2024-02-23T09:47:53;98831.41;;;8.19;88.08
74659;BME280;63186;51.204;6.536;2024-02-23T09:50:20;98821.94;;;8.28;87.06
74659;BME280;63186;51.204;6.536;2024-02-23T09:52:47;98829.44;;;7.82;84.62
74659;BME280;63186;51.204;6.536;2024-02-23T09:55:16;98830.00;;;7.55;84.95
74659;BME280;63186;51.204;6.536;2024-02-23T09:57:42;98828.59;;;7.37;87.86
74659;BME280;63186;51.204;6.536;2024-02-23T10:00:08;98838.88;;;7.40;89.29
74659;BME280;63186;51.204;6.536;2024-02-23T10:02:35;98826.06;;;7.31;82.57
74659;BME280;63186;51.204;6.536;2024-02-23T10:05:01;98824.38;;;7.39;85.29
74659;BME280;63186;51.204;6.536;2024-02-23T10:07:27;98825.78;;;7.45;82.61
74659;BME280;63186;51.204;6.536;2024-02-23T10:09:53;98832.25;;;7.41;82.33
74659;BME280;63186;51.204;6.536;2024-02-23T10:12:20;98823.00;;;7.33;84.12
74659;BME280;63186;51.204;6.536;2024-02-23T10:14:46;98812.84;;;7.33;84.36
74659;BME280;63186;51.204;6.536;2024-02-23T10:17:11;98832.69;;;7.30;83.24
74659;BME280;63186;51.204;6.536;2024-02-23T10:19:36;98840.31;;;7.25;83.53
74659;BME280;63186;51.204;6.536;2024-02-23T10:22:03;98836.38;;;7.14;83.66
74659;BME280;63186;51.204;6.536;2024-02-23T10:24:28;98832.63;;;7.18;84.75
74659;BME280;63186;51.204;6.536;2024-02-23T10:26:53;98845.09;;;7.28;84.84
74659;BME280;63186;51.204;6.536;2024-02-23T10:29:20;98825.84;;;7.37;85.67
74659;BME280;63186;51.204;6.536;2024-02-23T10:31:47;98835.69;;;7.38;84.20
74659;BME280;63186;51.204;6.536;2024-02-23T10:34:18;98841.34;;;7.32;85.07
74659;BME280;63186;51.204;6.536;2024-02-23T10:36:44;98845.06;;;7.49;83.25
74659;BME280;63186;51.204;6.536;2024-02-23T10:39:15;98843.97;;;7.62;83.98
74659;BME280;63186;51.204;6.536;2024-02-23T10:41:46;98846.13;;;7.56;79.47
74659;BME280;63186;51.204;6.536;2024-02-23T10:44:12;98841.91;;;7.59;80.11
74659;BME280;63186;51.204;6.536;2024-02-23T10:46:38;98845.06;;;7.49;79.37
74659;BME280;63186;51.204;6.536;2024-02-23T10:49:06;98850.53;;;7.49;80.73
74659;BME280;63186;51.204;6.536;2024-02-23T10:51:33;98855.09;;;7.45;79.82
74659;BME280;63186;51.204;6.536;2024-02-23T10:53:59;98845.34;;;7.35;80.49
74659;BME280;63186;51.204;6.536;2024-02-23T10:56:25;98851.03;;;7.30;82.01
74659;BME280;63186;51.204;6.536;2024-02-23T10:58:51;98852.66;;;7.31;82.87
74659;BME280;63186;51.204;6.536;2024-02-23T11:01:18;98861.78;;;7.35;81.53
74659;BME280;63186;51.204;6.536;2024-02-23T11:03:46;98857.25;;;7.39;80.19
74659;BME280;63186;51.204;6.536;2024-02-23T11:06:15;98843.94;;;7.50;81.04
74659;BME280;63186;51.204;6.536;2024-02-23T11:08:46;98857.50;;;7.46;81.02
74659;BME280;63186;51.204;6.536;2024-02-23T11:11:11;98848.44;;;7.67;82.73
74659;BME280;63186;51.204;6.536;2024-02-23T11:13:38;98849.50;;;7.86;80.64
74659;BME280;63186;51.204;6.536;2024-02-23T11:16:05;98853.19;;;8.03;81.54
74659;BME280;63186;51.204;6.536;2024-02-23T11:18:31;98839.25;;;8.08;80.13
74659;BME280;63186;51.204;6.536;2024-02-23T11:21:01;98849.31;;;8.04;81.37
74659;BME280;63186;51.204;6.536;2024-02-23T11:23:38;98849.31;;;8.04;82.25
74659;BME280;63186;51.204;6.536;2024-02-23T11:26:05;98842.44;;;7.98;80.53
74659;BME280;63186;51.204;6.536;2024-02-23T11:28:41;98833.50;;;7.88;81.25
74659;BME280;63186;51.204;6.536;2024-02-23T11:31:19;98851.34;;;7.95;81.89
74659;BME280;63186;51.204;6.536;2024-02-23T11:33:55;98838.47;;;8.07;80.64
74659;BME280;63186;51.204;6.536;2024-02-23T11:36:27;98845.09;;;8.19;81.81
74659;BME280;63186;51.204;6.536;2024-02-23T11:38:53;98839.03;;;8.13;81.62
74659;BME280;63186;51.204;6.536;2024-02-23T11:41:21;98849.88;;;7.97;82.07
74659;BME280;63186;51.204;6.536;2024-02-23T11:43:47;98832.75;;;8.00;81.67
74659;BME280;63186;51.204;6.536;2024-02-23T11:46:14;98844.53;;;8.13;80.95
74659;BME280;63186;51.204;6.536;2024-02-23T11:48:39;98845.66;;;8.12;79.22
74659;BME280;63186;51.204;6.536;2024-02-23T11:51:04;98847.47;;;8.08;78.70
74659;BME280;63186;51.204;6.536;2024-02-23T11:53:30;98844.06;;;7.99;79.05
74659;BME280;63186;51.204;6.536;2024-02-23T11:55:55;98835.38;;;7.97;79.54
74659;BME280;63186;51.204;6.536;2024-02-23T11:58:21;98839.28;;;8.20;78.74
74659;BME280;63186;51.204;6.536;2024-02-23T12:00:46;98856.69;;;8.49;79.26
74659;BME280;63186;51.204;6.536;2024-02-23T12:03:11;98844.00;;;8.44;78.42
74659;BME280;63186;51.204;6.536;2024-02-23T12:05:37;98839.31;;;8.45;78.98
74659;BME280;63186;51.204;6.536;2024-02-23T12:08:02;98847.31;;;8.37;79.51
74659;BME280;63186;51.204;6.536;2024-02-23T12:10:28;98847.03;;;8.18;78.31
74659;BME280;63186;51.204;6.536;2024-02-23T12:12:54;98849.97;;;8.01;78.38
74659;BME280;63186;51.204;6.536;2024-02-23T12:15:20;98856.25;;;8.01;79.78
74659;BME280;63186;51.204;6.536;2024-02-23T12:17:47;98843.28;;;8.23;78.04
74659;BME280;63186;51.204;6.536;2024-02-23T12:20:13;98853.91;;;8.73;80.44
74659;BME280;63186;51.204;6.536;2024-02-23T12:22:38;98845.28;;;8.99;77.48
74659;BME280;63186;51.204;6.536;2024-02-23T12:25:05;98843.16;;;9.33;78.10
74659;BME280;63186;51.204;6.536;2024-02-23T12:27:31;98843.19;;;9.48;78.78
74659;BME280;63186;51.204;6.536;2024-02-23T12:29:56;98831.59;;;9.27;75.18
74659;BME280;63186;51.204;6.536;2024-02-23T12:32:22;98845.97;;;9.08;75.54
74659;BME280;63186;51.204;6.536;2024-02-23T12:34:48;98851.91;;;8.98;77.55
74659;BME280;63186;51.204;6.536;2024-02-23T12:37:17;98838.81;;;8.67;76.95
74659;BME280;63186;51.204;6.536;2024-02-23T12:39:43;98840.22;;;8.61;78.72
74659;BME280;63186;51.204;6.536;2024-02-23T12:42:09;98848.09;;;8.75;80.74
74659;BME280;63186;51.204;6.536;2024-02-23T12:44:34;98847.03;;;8.79;79.27
74659;BME280;63186;51.204;6.536;2024-02-23T12:47:00;98852.22;;;8.68;79.15
74659;BME280;63186;51.204;6.536;2024-02-23T12:49:25;98856.78;;;8.52;77.69
74659;BME280;63186;51.204;6.536;2024-02-23T12:51:51;98853.81;;;8.45;79.78
74659;BME280;63186;51.204;6.536;2024-02-23T12:54:16;98854.03;;;8.40;78.01
74659;BME280;63186;51.204;6.536;2024-02-23T12:56:41;98844.19;;;8.27;78.58
74659;BME280;63186;51.204;6.536;2024-02-23T12:59:07;98860.63;;;8.27;79.03